Latest Weather Observations for Tindal

IDD60801

Issued at 7:11 pm CST Sunday 19 August 2018 (issued every 10 minutes, with the page automatically refreshed every 10 minutes)

About weather observations | Map of weather stations | Latest weather observations for NT | Other Formats
Station Details ID: 014932 Name: TINDAL RAAF Lat: -14.52 Lon: 132.38 Height: 133.6 m
Data from the previous 72 hours. | See also: Recent months at Tindal
Date/Time
CST
Temp
°C
App
Temp
°C
Dew
Point
°C
Rel
Hum
%
Delta-T
°C
Wind Press
QNH
hPa
Press
MSL
hPa
Rain since
9am
mm
Dir  Spd
km/h
Gust
km/h
Spd
kts
Gust
kts
19/07:00pm 28.8 23.2 1.3 17 13.4 ENE 20 28 11 15 1015.1 1014.5 0.0
19/06:30pm 29.1 24.9 1.6 17 13.5 E 13 19 7 10 1014.4 1013.8 0.0
19/06:00pm 30.9 25.5 2.2 16 14.4 E 20 32 11 17 1014.1 1013.5 0.0
19/05:30pm 31.7 25.3 1.0 14 15.2 ESE 24 35 13 19 1013.8 1013.2 0.0
19/05:00pm 32.5 26.2 1.6 14 15.5 ESE 24 32 13 17 1013.6 1013.0 0.0
19/04:30pm 33.0 26.8 2.0 14 15.7 ESE 24 35 13 19 1013.5 1012.9 0.0
19/04:00pm 32.7 25.4 2.7 15 15.3 ESE 30 52 16 28 1013.2 1012.6 0.0
19/03:30pm 33.1 26.7 3.0 15 15.5 E 26 41 14 22 1013.5 1012.9 0.0
19/03:00pm 32.8 25.0 2.8 15 15.4 ESE 33 46 18 25 1013.8 1013.2 0.0
19/02:41pm 33.2 25.8 2.1 14 15.8 E 30 57 16 31 1013.8 1013.2 0.0
19/02:30pm 33.0 26.0 2.0 14 15.7 ESE 28 39 15 21 1014.0 1013.4 0.0
19/02:00pm 32.7 25.1 2.7 15 15.3 ESE 32 48 17 26 1014.4 1013.8 0.0
19/01:52pm 32.4 25.3 3.4 16 15.0 E 30 48 16 26 1014.5 1013.9 0.0
19/01:30pm 32.2 25.6 4.1 17 14.7 ESE 28 39 15 21 1014.8 1014.2 0.0
19/01:00pm 31.9 24.1 3.0 16 14.8 E 33 48 18 26 1015.2 1014.6 0.0
19/12:47pm 32.0 24.4 3.1 16 14.8 E 32 52 17 28 1015.3 1014.7 0.0
19/12:30pm 31.2 24.7 4.9 19 13.8 E 28 39 15 21 1015.5 1015.0 0.0
19/12:00pm 31.2 24.0 4.9 19 13.8 ESE 32 46 17 25 1016.0 1015.4 0.0
19/11:54am 31.1 24.6 4.8 19 13.8 ESE 28 46 15 25 1016.2 1015.6 0.0
19/11:30am 30.7 25.1 5.2 20 13.4 ESE 24 39 13 21 1016.6 1016.0 0.0
19/11:00am 30.1 25.4 6.1 22 12.8 E 20 32 11 17 1017.0 1016.4 0.0
19/10:30am 28.6 24.3 7.2 26 11.5 E 19 28 10 15 1017.4 1016.8 0.0
19/10:00am 27.1 23.2 8.5 31 10.2 E 19 24 10 13 1017.5 1016.9 0.0
19/09:30am 25.0 22.6 10.1 39 8.3 ESE 13 17 7 9 1017.6 1017.0 0.0
19/09:00am 23.1 20.8 10.5 45 7.0 ESE 13 17 7 9 1017.5 1016.9 0.0
19/08:30am 20.4 18.5 10.5 53 5.4 SE 11 17 6 9 1017.3 1016.7 0.0
19/08:00am 18.7 16.8 10.5 59 4.4 SE 11 15 6 8 1017.0 1016.4 0.0
19/07:30am 16.0 14.9 10.5 70 2.9 SSE 7 9 4 5 1016.8 1016.2 0.0
19/07:00am 14.7 13.0 9.7 72 2.6 ESE 9 11 5 6 1016.4 1015.8 0.0
19/06:30am 15.5 13.7 9.6 68 3.1 SSE 9 11 5 6 1016.0 1015.4 0.0
19/06:00am 16.0 14.6 9.4 65 3.4 ESE 7 9 4 5 1015.6 1015.1 0.0
19/05:30am 16.1 13.6 9.8 66 3.3 SE 13 15 7 8 1015.4 1014.9 0.0
19/05:00am 16.1 14.4 9.8 66 3.3 SSE 9 13 5 7 1015.0 1014.4 0.0
19/04:30am 16.5 15.3 9.4 63 3.7 SSE 6 9 3 5 1014.8 1014.2 0.0
19/04:00am 16.3 14.1 9.5 64 3.6 SE 11 13 6 7 1014.6 1014.0 0.0
19/03:30am 16.0 14.1 9.2 64 3.5 SSE 9 13 5 7 1014.7 1014.1 0.0
19/03:00am 16.9 15.1 9.3 61 4.0 SSE 9 11 5 6 1014.7 1014.1 0.0
19/02:30am 16.6 14.2 8.8 60 4.0 SSE 11 13 6 7 1014.9 1014.3 0.0
19/02:00am 18.8 16.8 8.7 52 5.3 SSE 9 9 5 5 1015.0 1014.4 0.0
19/01:30am 21.9 20.4 9.1 44 6.9 E 7 11 4 6 1015.1 1014.5 0.0
19/01:00am 22.7 19.9 8.4 40 7.6 E 13 19 7 10 1015.2 1014.6 0.0
19/12:30am 23.9 20.2 7.9 36 8.5 E 17 20 9 11 1015.1 1014.5 0.0
19/12:00am 24.2 20.4 7.4 34 8.9 E 17 22 9 12 1015.2 1014.6 0.0
 
Date/Time
CST
Temp
°C
App
Temp
°C
Dew
Point
°C
Rel
Hum
%
Delta-T
°C
Wind Press
QNH
hPa
Press
MSL
hPa
Rain since
9am
mm
Dir  Spd
km/h
Gust
km/h
Spd
kts
Gust
kts
18/11:30pm 24.1 20.5 6.8 33 9.0 ESE 15 20 8 11 1015.1 1014.5 0.0
18/11:00pm 25.5 21.5 6.7 30 9.9 E 17 22 9 12 1014.9 1014.3 0.0
18/10:30pm 25.7 21.2 6.3 29 10.1 E 19 24 10 13 1014.6 1014.0 0.0
18/10:18pm 23.0 19.6 7.5 37 8.1 ESE 15 22 8 12 1014.5 1013.9 0.0
18/10:00pm 17.8 15.3 8.4 54 4.9 SE 11 13 6 7 1014.4 1013.8 0.0
18/09:30pm 19.1 17.6 8.4 50 5.6 SE 6 7 3 4 1014.2 1013.6 0.0
18/09:00pm 19.8 18.1 8.2 47 6.0 SE 7 9 4 5 1013.9 1013.3 0.0
18/08:30pm 20.7 18.9 8.0 44 6.6 ESE 7 7 4 4 1013.8 1013.2 0.0
18/08:00pm 22.6 20.6 7.2 37 8.0 ESE 7 9 4 5 1013.5 1012.9 0.0
18/07:30pm 23.9 21.7 7.9 36 8.5 E 9 11 5 6 1013.2 1012.6 0.0
18/07:00pm 27.1 24.4 5.4 25 11.2 ESE 9 11 5 6 1012.7 1012.1 0.0
18/06:30pm 28.8 26.0 5.0 22 12.4 SE 9 11 5 6 1012.4 1011.8 0.0
18/06:00pm 31.0 26.8 3.9 18 14.0 ESE 15 19 8 10 1012.3 1011.7 0.0
18/05:30pm 31.7 27.1 3.7 17 14.5 ESE 17 28 9 15 1012.2 1011.6 0.0
18/05:00pm 32.3 27.6 3.3 16 15.0 ESE 17 32 9 17 1012.0 1011.4 0.0
18/04:30pm 32.7 27.9 2.7 15 15.4 ESE 17 22 9 12 1011.8 1011.2 0.0
18/04:00pm 33.2 27.5 3.1 15 15.5 ESE 22 33 12 18 1011.8 1011.2 0.0
18/03:55pm 32.9 27.2 2.9 15 15.4 E 22 33 12 18 1011.7 1011.1 0.0
18/03:30pm 32.7 28.1 3.6 16 15.1 ESE 17 32 9 17 1011.9 1011.3 0.0
18/03:00pm 32.7 27.3 2.7 15 15.4 ESE 20 30 11 16 1012.1 1011.5 0.0
18/02:30pm 32.5 27.9 3.5 16 15.0 E 17 28 9 15 1012.5 1011.9 0.0
18/02:00pm 32.4 27.4 3.4 16 15.0 ESE 19 32 10 17 1012.8 1012.2 0.0
18/01:30pm 32.1 26.8 3.1 16 14.9 SE 20 35 11 19 1013.3 1012.7 0.0
18/01:00pm 32.5 27.6 4.3 17 14.8 ESE 19 35 10 19 1013.9 1013.3 0.0
18/12:30pm 31.6 26.9 5.9 20 13.8 E 20 30 11 16 1014.5 1013.9 0.0
18/12:00pm 30.9 25.4 6.0 21 13.3 ESE 24 39 13 21 1015.2 1014.6 0.0
18/11:30am 29.9 25.6 7.2 24 12.3 SE 19 30 10 16 1015.9 1015.3 0.0
18/11:00am 29.1 25.8 8.2 27 11.5 E 15 20 8 11 1016.3 1015.7 0.0
18/10:30am 27.9 26.4 9.2 31 10.4 NNW 7 13 4 7 1016.7 1016.1 0.0
18/10:00am 26.7 26.2 9.5 34 9.5 NNE 2 9 1 5 1016.9 1016.3 0.0
18/09:30am 24.7 23.5 9.4 38 8.4 SE 6 13 3 7 1016.8 1016.2 0.0
18/09:00am 22.9 21.0 9.0 41 7.5 ESE 9 11 5 6 1016.7 1016.1 0.0
18/08:30am 19.9 17.1 8.6 48 5.9 SE 13 15 7 8 1016.4 1015.8 0.0
18/08:00am 17.4 14.5 8.3 55 4.7 SE 13 19 7 10 1016.1 1015.5 0.0
18/07:30am 14.3 12.2 8.3 67 3.0 SE 9 11 5 6 1015.5 1015.0 0.0
18/07:00am 12.7 10.5 8.0 73 2.3 SE 9 11 5 6 1015.3 1014.7 0.0
18/06:30am 13.6 11.7 7.6 67 3.0 SE 7 9 4 5 1015.0 1014.4 0.0
18/06:00am 13.4 11.6 7.8 69 2.8 SE 7 9 4 5 1014.8 1014.2 0.0
18/05:30am 14.3 12.0 7.6 64 3.3 SSE 9 9 5 5 1014.5 1013.9 0.0
18/05:00am 14.6 12.4 7.9 64 3.4 SE 9 11 5 6 1014.2 1013.6 0.0
18/04:30am 15.4 13.5 7.7 60 3.9 SE 7 9 4 5 1013.9 1013.3 0.0
18/04:00am 15.4 12.4 7.9 61 3.8 SSE 13 13 7 7 1013.6 1013.0 0.0
18/03:30am 15.1 12.8 7.6 61 3.7 SE 9 13 5 7 1013.6 1013.0 0.0
18/03:00am 17.0 15.6 7.4 53 4.8 SE 4 9 2 5 1013.5 1012.9 0.0
18/02:30am 20.6 17.7 6.5 40 7.2 ENE 11 17 6 9 1013.5 1012.9 0.0
18/02:00am 18.2 16.3 7.6 50 5.4 ENE 7 11 4 6 1013.6 1013.0 0.0
18/01:30am 17.2 14.5 7.5 53 4.9 SE 11 13 6 7 1013.8 1013.2 0.0
18/01:00am 16.2 13.7 8.4 60 4.0 SE 11 13 6 7 1013.8 1013.2 0.0
18/12:30am 15.7 13.6 8.4 62 3.7 SSE 9 15 5 8 1013.8 1013.2 0.0
18/12:00am 16.9 15.8 8.6 58 4.3 SE 4 7 2 4 1013.8 1013.2 0.0
 
Date/Time
CST
Temp
°C
App
Temp
°C
Dew
Point
°C
Rel
Hum
%
Delta-T
°C
Wind Press
QNH
hPa
Press
MSL
hPa
Rain since
9am
mm
Dir  Spd
km/h
Gust
km/h
Spd
kts
Gust
kts
17/11:30pm 17.2 15.6 8.6 57 4.4 SE 7 7 4 4 1013.8 1013.2 0.0
17/11:00pm 18.4 16.4 8.7 53 5.1 SSE 9 13 5 7 1013.9 1013.3 0.0
17/10:30pm 19.1 17.6 8.4 50 5.6 SE 6 7 3 4 1013.8 1013.2 0.0
17/10:00pm 19.0 16.9 8.4 50 5.5 SE 9 9 5 5 1013.7 1013.1 0.0
17/09:30pm 20.1 18.3 8.1 46 6.3 ESE 7 9 4 5 1013.5 1012.9 0.0
17/09:00pm 20.0 18.3 8.4 47 6.1 ESE 7 9 4 5 1013.3 1012.7 0.0
17/08:30pm 20.7 18.6 8.4 45 6.5 ESE 9 9 5 5 1013.0 1012.4 0.0
17/08:00pm 21.7 20.0 8.2 42 7.1 ESE 7 9 4 5 1012.6 1012.0 0.0
17/07:30pm 24.4 21.6 7.1 33 9.1 SE 11 13 6 7 1012.0 1011.4 0.0
17/07:00pm 24.5 22.2 7.6 34 9.0 SE 9 9 5 5 1011.6 1011.0 0.0
17/06:30pm 27.6 24.9 5.8 25 11.4 ESE 9 11 5 6 1011.2 1010.6 0.0
17/06:00pm 28.7 25.7 6.1 24 12.0 SE 11 13 6 7 1010.9 1010.3 0.0
17/05:30pm 30.4 26.8 4.9 20 13.4 SE 13 20 7 11 1010.6 1010.0 0.0
17/05:00pm 31.3 27.9 4.2 18 14.1 SSE 11 15 6 8 1010.3 1009.7 0.0
17/04:30pm 31.4 27.4 5.0 19 13.9 ENE 15 24 8 13 1010.0 1009.4 0.0
17/04:00pm 31.8 27.4 4.6 18 14.3 ESE 17 28 9 15 1010.0 1009.4 0.0
17/03:30pm 31.5 27.8 4.3 18 14.2 SE 13 26 7 14 1010.0 1009.4 0.0
17/03:00pm 31.7 28.0 4.5 18 14.3 SE 13 24 7 13 1010.3 1009.7 0.0
17/02:30pm 31.4 27.7 4.2 18 14.2 NE 13 30 7 16 1010.5 1009.9 0.0
17/02:00pm 31.5 27.8 4.3 18 14.2 E 13 20 7 11 1011.0 1010.4 0.0
17/01:30pm 31.7 27.5 3.7 17 14.5 ESE 15 24 8 13 1011.6 1011.0 0.0
17/01:00pm 31.2 26.3 4.1 18 14.1 ENE 19 30 10 16 1012.1 1011.5 0.0
17/12:30pm 30.6 26.4 3.6 18 13.9 ESE 15 28 8 15 1012.6 1012.0 0.0
17/12:00pm 30.7 26.1 3.7 18 13.9 E 17 28 9 15 1013.1 1012.5 0.0
17/11:30am 30.4 26.6 5.6 21 13.1 E 15 30 8 16 1013.6 1013.0 0.0
17/11:00am 29.0 26.1 8.1 27 11.5 E 13 22 7 12 1014.3 1013.7 0.0
17/10:30am 28.2 25.7 8.0 28 11.0 NE 11 17 6 9 1014.7 1014.1 0.0
17/10:00am 26.6 25.4 10.3 36 9.2 NNE 7 11 4 6 1014.8 1014.2 0.0
17/09:30am 24.7 23.4 9.8 39 8.2 ENE 7 9 4 5 1014.8 1014.2 0.0
17/09:00am 23.2 22.4 8.1 38 8.0 ENE 2 6 1 3 1014.7 1014.1 0.0
17/08:30am 19.3 18.9 8.3 49 5.7 CALM 0 6 0 3 1014.5 1013.9 0.0
17/08:00am 16.0 14.1 7.7 58 4.2 SSE 7 9 4 5 1014.3 1013.7 0.0
17/07:30am 13.7 12.0 7.7 67 3.0 SSE 6 9 3 5 1014.1 1013.5 0.0
17/07:00am 13.2 11.5 7.4 68 2.8 SE 6 9 3 5 1013.9 1013.3 0.0
17/06:30am 14.2 12.4 7.0 62 3.5 SE 6 7 3 4 1013.5 1012.9 0.0
17/06:00am 13.7 11.7 7.2 65 3.2 SE 7 9 4 5 1013.3 1012.7 0.0
17/05:30am 13.5 11.2 7.3 66 3.0 SE 9 11 5 6 1013.3 1012.7 0.0
17/05:00am 13.8 11.4 7.1 64 3.3 SE 9 9 5 5 1013.2 1012.6 0.0
17/04:30am 14.0 11.7 7.3 64 3.3 SE 9 9 5 5 1013.2 1012.6 0.0
17/04:00am 13.6 10.9 7.4 66 3.1 SE 11 13 6 7 1013.0 1012.4 0.0
17/03:30am 13.4 11.4 7.2 66 3.0 SSE 7 9 4 5 1013.0 1012.4 0.0
17/03:00am 15.6 14.2 7.1 57 4.2 SE 4 7 2 4 1013.1 1012.5 0.0
17/02:30am 15.7 12.6 7.2 57 4.2 SSE 13 13 7 7 1012.7 1012.1 0.0
17/02:00am 15.8 13.5 7.3 57 4.2 SSE 9 11 5 6 1012.6 1012.0 0.0
17/01:30am 14.7 13.4 7.5 62 3.6 S 4 7 2 4 1012.5 1011.9 0.0
17/01:00am 15.8 14.0 7.3 57 4.2 S 6 7 3 4 1012.6 1012.0 0.0
17/12:30am 17.2 14.8 7.0 51 5.1 S 9 9 5 5 1012.7 1012.1 0.0
17/12:00am 16.3 14.4 7.5 56 4.4 ESE 7 7 4 4 1012.7 1012.1 0.0
 
Date/Time
CST
Temp
°C
App
Temp
°C
Dew
Point
°C
Rel
Hum
%
Delta-T
°C
Wind Press
QNH
hPa
Press
MSL
hPa
Rain since
9am
mm
Dir  Spd
km/h
Gust
km/h
Spd
kts
Gust
kts
16/11:30pm 17.8 16.3 7.0 49 5.4 SE 4 9 2 5 1012.9 1012.3 0.0
16/11:00pm 18.0 14.9 7.1 49 5.5 SSE 13 15 7 8 1013.0 1012.4 0.0
16/10:30pm 18.5 16.1 7.0 47 5.8 SE 9 9 5 5 1013.0 1012.4 0.0
16/10:00pm 18.4 15.6 6.9 47 5.8 ESE 11 13 6 7 1013.1 1012.5 0.0
16/09:30pm 19.2 17.2 7.0 45 6.2 SE 7 9 4 5 1013.1 1012.5 0.0
16/09:00pm 19.6 17.2 7.0 44 6.4 SE 9 9 5 5 1012.9 1012.3 0.0
16/08:30pm 20.1 18.1 7.1 43 6.7 ESE 7 9 4 5 1012.6 1012.0 0.0
16/08:00pm 22.1 19.6 6.7 37 7.9 SSE 9 9 5 5 1012.1 1011.5 0.0
16/07:30pm 23.1 20.9 6.0 33 8.7 SSE 7 9 4 5 1011.8 1011.2 0.0

Other Formats:

Comma delimited format used in spreadsheet applications
http://www.bom.gov.au/fwo/IDD60801/IDD60801.94131.axf

JavaScript Object Notation format (JSON) in row-major order
http://www.bom.gov.au/fwo/IDD60801/IDD60801.94131.json